sensor_id;sensor_type;location;lat;lon;timestamp;temperature;humidity
84141;DHT22;74257;52.540;13.416;2024-02-16T00:00:25;24.70;47.40
84141;DHT22;74257;52.540;13.416;2024-02-16T00:03:10;24.70;47.50
84141;DHT22;74257;52.540;13.416;2024-02-16T00:05:37;24.60;47.40
84141;DHT22;74257;52.540;13.416;2024-02-16T00:08:02;24.60;47.40
84141;DHT22;74257;52.540;13.416;2024-02-16T00:10:29;24.60;47.30
84141;DHT22;74257;52.540;13.416;2024-02-16T00:12:54;24.60;47.30
84141;DHT22;74257;52.540;13.416;2024-02-16T00:15:20;24.60;47.30
84141;DHT22;74257;52.540;13.416;2024-02-16T00:17:46;24.60;47.30
84141;DHT22;74257;52.540;13.416;2024-02-16T00:20:12;24.50;47.30
84141;DHT22;74257;52.540;13.416;2024-02-16T00:22:38;24.50;47.30
84141;DHT22;74257;52.540;13.416;2024-02-16T00:25:04;24.50;47.30
84141;DHT22;74257;52.540;13.416;2024-02-16T00:27:30;24.50;47.20
84141;DHT22;74257;52.540;13.416;2024-02-16T00:29:56;24.50;47.20
84141;DHT22;74257;52.540;13.416;2024-02-16T00:32:21;24.50;47.30
84141;DHT22;74257;52.540;13.416;2024-02-16T00:34:50;24.50;47.20
84141;DHT22;74257;52.540;13.416;2024-02-16T00:37:17;24.50;47.20
84141;DHT22;74257;52.540;13.416;2024-02-16T00:39:43;24.50;47.20
84141;DHT22;74257;52.540;13.416;2024-02-16T00:42:09;24.40;47.20
84141;DHT22;74257;52.540;13.416;2024-02-16T00:44:35;24.40;47.20
84141;DHT22;74257;52.540;13.416;2024-02-16T00:47:00;24.40;47.20
84141;DHT22;74257;52.540;13.416;2024-02-16T00:49:26;24.40;47.20
84141;DHT22;74257;52.540;13.416;2024-02-16T00:51:52;24.40;47.20
84141;DHT22;74257;52.540;13.416;2024-02-16T00:54:18;24.40;47.20
84141;DHT22;74257;52.540;13.416;2024-02-16T00:56:43;24.40;47.20
84141;DHT22;74257;52.540;13.416;2024-02-16T00:59:09;24.40;47.10
84141;DHT22;74257;52.540;13.416;2024-02-16T01:01:38;24.40;47.10
84141;DHT22;74257;52.540;13.416;2024-02-16T01:04:04;24.40;47.10
84141;DHT22;74257;52.540;13.416;2024-02-16T01:06:30;24.40;47.10
84141;DHT22;74257;52.540;13.416;2024-02-16T01:08:55;24.40;47.00
84141;DHT22;74257;52.540;13.416;2024-02-16T01:11:22;24.40;47.10
84141;DHT22;74257;52.540;13.416;2024-02-16T01:13:49;24.40;47.00
84141;DHT22;74257;52.540;13.416;2024-02-16T01:16:15;24.30;47.00
84141;DHT22;74257;52.540;13.416;2024-02-16T01:18:44;24.30;47.00
84141;DHT22;74257;52.540;13.416;2024-02-16T01:21:10;24.30;47.00
84141;DHT22;74257;52.540;13.416;2024-02-16T01:23:36;24.20;46.90
84141;DHT22;74257;52.540;13.416;2024-02-16T01:26:02;24.20;46.90
84141;DHT22;74257;52.540;13.416;2024-02-16T01:28:28;24.20;46.90
84141;DHT22;74257;52.540;13.416;2024-02-16T01:30:54;24.20;46.90
84141;DHT22;74257;52.540;13.416;2024-02-16T01:33:22;24.20;46.90
84141;DHT22;74257;52.540;13.416;2024-02-16T01:35:47;24.20;46.90
84141;DHT22;74257;52.540;13.416;2024-02-16T01:38:13;24.20;46.90
84141;DHT22;74257;52.540;13.416;2024-02-16T01:40:39;24.20;46.80
84141;DHT22;74257;52.540;13.416;2024-02-16T01:43:05;24.20;46.90
84141;DHT22;74257;52.540;13.416;2024-02-16T01:45:31;24.20;46.90
84141;DHT22;74257;52.540;13.416;2024-02-16T01:47:57;24.20;46.80
84141;DHT22;74257;52.540;13.416;2024-02-16T01:50:23;24.20;46.80
84141;DHT22;74257;52.540;13.416;2024-02-16T01:52:50;24.20;46.80
84141;DHT22;74257;52.540;13.416;2024-02-16T01:55:16;24.20;46.80
84141;DHT22;74257;52.540;13.416;2024-02-16T01:57:44;24.20;46.80
84141;DHT22;74257;52.540;13.416;2024-02-16T02:00:10;24.10;46.80
84141;DHT22;74257;52.540;13.416;2024-02-16T02:02:37;24.10;46.80
84141;DHT22;74257;52.540;13.416;2024-02-16T02:05:03;24.10;46.80
84141;DHT22;74257;52.540;13.416;2024-02-16T02:07:29;24.00;46.70
84141;DHT22;74257;52.540;13.416;2024-02-16T02:09:56;24.00;46.70
84141;DHT22;74257;52.540;13.416;2024-02-16T02:12:22;24.00;46.80
84141;DHT22;74257;52.540;13.416;2024-02-16T02:14:49;24.00;46.70
84141;DHT22;74257;52.540;13.416;2024-02-16T02:17:15;24.00;46.70
84141;DHT22;74257;52.540;13.416;2024-02-16T02:19:41;24.00;46.70
84141;DHT22;74257;52.540;13.416;2024-02-16T02:22:17;24.00;46.80
84141;DHT22;74257;52.540;13.416;2024-02-16T02:24:43;24.00;46.70
84141;DHT22;74257;52.540;13.416;2024-02-16T02:27:10;24.00;46.70
84141;DHT22;74257;52.540;13.416;2024-02-16T02:29:36;24.00;46.60
84141;DHT22;74257;52.540;13.416;2024-02-16T02:32:02;24.00;46.70
84141;DHT22;74257;52.540;13.416;2024-02-16T02:34:27;24.00;46.70
84141;DHT22;74257;52.540;13.416;2024-02-16T02:36:53;24.00;46.60
84141;DHT22;74257;52.540;13.416;2024-02-16T02:39:19;24.00;46.70
84141;DHT22;74257;52.540;13.416;2024-02-16T02:41:45;23.90;46.70
84141;DHT22;74257;52.540;13.416;2024-02-16T02:44:10;23.90;46.70
84141;DHT22;74257;52.540;13.416;2024-02-16T02:46:37;23.90;46.60
84141;DHT22;74257;52.540;13.416;2024-02-16T02:49:02;23.90;46.70
84141;DHT22;74257;52.540;13.416;2024-02-16T02:51:29;23.90;46.70
84141;DHT22;74257;52.540;13.416;2024-02-16T02:53:55;23.90;46.60
84141;DHT22;74257;52.540;13.416;2024-02-16T02:56:21;23.90;46.70
84141;DHT22;74257;52.540;13.416;2024-02-16T02:58:47;23.90;46.60
84141;DHT22;74257;52.540;13.416;2024-02-16T03:01:13;23.80;46.60
84141;DHT22;74257;52.540;13.416;2024-02-16T03:03:40;23.90;46.60
84141;DHT22;74257;52.540;13.416;2024-02-16T03:06:08;23.90;46.60
84141;DHT22;74257;52.540;13.416;2024-02-16T03:08:35;23.80;46.60
84141;DHT22;74257;52.540;13.416;2024-02-16T03:11:01;23.80;46.60
84141;DHT22;74257;52.540;13.416;2024-02-16T03:13:27;23.80;46.50
84141;DHT22;74257;52.540;13.416;2024-02-16T03:15:53;23.80;46.60
84141;DHT22;74257;52.540;13.416;2024-02-16T03:18:19;23.80;46.60
84141;DHT22;74257;52.540;13.416;2024-02-16T03:20:45;23.80;46.60
84141;DHT22;74257;52.540;13.416;2024-02-16T03:23:14;23.80;46.60
84141;DHT22;74257;52.540;13.416;2024-02-16T03:25:40;23.80;46.60
84141;DHT22;74257;52.540;13.416;2024-02-16T03:28:09;23.80;46.60
84141;DHT22;74257;52.540;13.416;2024-02-16T03:30:35;23.70;46.60
84141;DHT22;74257;52.540;13.416;2024-02-16T03:33:01;23.70;46.60
84141;DHT22;74257;52.540;13.416;2024-02-16T03:35:27;23.70;46.50
84141;DHT22;74257;52.540;13.416;2024-02-16T03:37:53;23.70;46.50
84141;DHT22;74257;52.540;13.416;2024-02-16T03:40:19;23.70;46.60
84141;DHT22;74257;52.540;13.416;2024-02-16T03:42:44;23.70;46.50
84141;DHT22;74257;52.540;13.416;2024-02-16T03:45:10;23.60;46.60
84141;DHT22;74257;52.540;13.416;2024-02-16T03:47:36;23.60;46.50
84141;DHT22;74257;52.540;13.416;2024-02-16T03:50:03;23.60;46.60
84141;DHT22;74257;52.540;13.416;2024-02-16T03:52:28;23.60;46.60
84141;DHT22;74257;52.540;13.416;2024-02-16T03:54:54;23.60;46.50
84141;DHT22;74257;52.540;13.416;2024-02-16T03:57:20;23.60;46.60
84141;DHT22;74257;52.540;13.416;2024-02-16T03:59:46;23.60;46.60
84141;DHT22;74257;52.540;13.416;2024-02-16T04:02:12;23.60;46.60
84141;DHT22;74257;52.540;13.416;2024-02-16T04:04:41;23.60;46.60
84141;DHT22;74257;52.540;13.416;2024-02-16T04:07:07;23.60;46.70
84141;DHT22;74257;52.540;13.416;2024-02-16T04:09:34;23.60;46.70
84141;DHT22;74257;52.540;13.416;2024-02-16T04:12:00;23.60;46.60
84141;DHT22;74257;52.540;13.416;2024-02-16T04:14:27;23.60;46.70
84141;DHT22;74257;52.540;13.416;2024-02-16T04:16:52;23.60;46.60
84141;DHT22;74257;52.540;13.416;2024-02-16T04:19:19;23.60;46.60
84141;DHT22;74257;52.540;13.416;2024-02-16T04:21:44;23.60;46.60
84141;DHT22;74257;52.540;13.416;2024-02-16T04:24:10;23.60;46.70
84141;DHT22;74257;52.540;13.416;2024-02-16T04:26:36;23.60;46.60
84141;DHT22;74257;52.540;13.416;2024-02-16T04:29:03;23.50;46.60
84141;DHT22;74257;52.540;13.416;2024-02-16T04:31:30;23.50;46.60
84141;DHT22;74257;52.540;13.416;2024-02-16T04:33:55;23.50;46.60
84141;DHT22;74257;52.540;13.416;2024-02-16T04:36:21;23.50;46.60
84141;DHT22;74257;52.540;13.416;2024-02-16T04:38:47;23.50;46.70
84141;DHT22;74257;52.540;13.416;2024-02-16T04:41:13;23.50;46.60
84141;DHT22;74257;52.540;13.416;2024-02-16T04:43:39;23.50;46.70
84141;DHT22;74257;52.540;13.416;2024-02-16T04:46:05;23.50;46.70
84141;DHT22;74257;52.540;13.416;2024-02-16T04:48:31;23.50;46.70
84141;DHT22;74257;52.540;13.416;2024-02-16T04:50:57;23.50;46.60
84141;DHT22;74257;52.540;13.416;2024-02-16T04:53:23;23.50;46.60
84141;DHT22;74257;52.540;13.416;2024-02-16T04:55:49;23.50;46.60
84141;DHT22;74257;52.540;13.416;2024-02-16T04:58:15;23.50;46.70
84141;DHT22;74257;52.540;13.416;2024-02-16T05:00:40;23.40;46.60
84141;DHT22;74257;52.540;13.416;2024-02-16T05:03:06;23.40;46.60
84141;DHT22;74257;52.540;13.416;2024-02-16T05:05:32;23.40;46.60
84141;DHT22;74257;52.540;13.416;2024-02-16T05:08:00;23.40;46.60
84141;DHT22;74257;52.540;13.416;2024-02-16T05:10:25;23.40;46.60
84141;DHT22;74257;52.540;13.416;2024-02-16T05:12:51;23.40;46.70
84141;DHT22;74257;52.540;13.416;2024-02-16T05:15:17;23.40;46.60
84141;DHT22;74257;52.540;13.416;2024-02-16T05:17:47;23.40;46.60
84141;DHT22;74257;52.540;13.416;2024-02-16T05:20:16;23.40;46.60
84141;DHT22;74257;52.540;13.416;2024-02-16T05:22:46;23.40;46.60
84141;DHT22;74257;52.540;13.416;2024-02-16T05:25:13;23.30;46.70
84141;DHT22;74257;52.540;13.416;2024-02-16T05:27:40;23.30;46.60
84141;DHT22;74257;52.540;13.416;2024-02-16T05:30:06;23.30;46.60
84141;DHT22;74257;52.540;13.416;2024-02-16T05:32:35;23.30;46.60
84141;DHT22;74257;52.540;13.416;2024-02-16T05:35:01;23.30;46.70
84141;DHT22;74257;52.540;13.416;2024-02-16T05:37:30;23.30;46.60
84141;DHT22;74257;52.540;13.416;2024-02-16T05:39:58;23.30;46.60
84141;DHT22;74257;52.540;13.416;2024-02-16T05:42:34;23.30;46.70
84141;DHT22;74257;52.540;13.416;2024-02-16T05:45:01;23.30;46.70
84141;DHT22;74257;52.540;13.416;2024-02-16T05:47:28;23.30;46.80
84141;DHT22;74257;52.540;13.416;2024-02-16T05:49:53;23.30;46.80
84141;DHT22;74257;52.540;13.416;2024-02-16T05:52:19;23.30;46.90
84141;DHT22;74257;52.540;13.416;2024-02-16T05:54:46;23.30;47.00
84141;DHT22;74257;52.540;13.416;2024-02-16T05:57:13;23.40;47.00
84141;DHT22;74257;52.540;13.416;2024-02-16T05:59:39;23.40;47.00
84141;DHT22;74257;52.540;13.416;2024-02-16T06:02:05;23.40;47.20
84141;DHT22;74257;52.540;13.416;2024-02-16T06:04:33;23.50;47.20
84141;DHT22;74257;52.540;13.416;2024-02-16T06:06:59;23.50;47.20
84141;DHT22;74257;52.540;13.416;2024-02-16T06:09:26;23.50;47.20
84141;DHT22;74257;52.540;13.416;2024-02-16T06:11:52;23.60;47.20
84141;DHT22;74257;52.540;13.416;2024-02-16T06:14:17;23.60;46.80
84141;DHT22;74257;52.540;13.416;2024-02-16T06:16:43;23.60;46.30
84141;DHT22;74257;52.540;13.416;2024-02-16T06:19:09;23.60;45.80
84141;DHT22;74257;52.540;13.416;2024-02-16T06:21:35;23.60;45.70
84141;DHT22;74257;52.540;13.416;2024-02-16T06:24:01;23.60;45.80
84141;DHT22;74257;52.540;13.416;2024-02-16T06:26:27;23.60;45.90
84141;DHT22;74257;52.540;13.416;2024-02-16T06:28:53;23.60;46.00
84141;DHT22;74257;52.540;13.416;2024-02-16T06:31:18;23.60;46.10
84141;DHT22;74257;52.540;13.416;2024-02-16T06:33:44;23.60;46.20
84141;DHT22;74257;52.540;13.416;2024-02-16T06:36:10;23.60;46.40
84141;DHT22;74257;52.540;13.416;2024-02-16T06:38:37;23.60;46.50
84141;DHT22;74257;52.540;13.416;2024-02-16T06:41:03;23.70;46.60
84141;DHT22;74257;52.540;13.416;2024-02-16T06:43:29;23.70;46.70
84141;DHT22;74257;52.540;13.416;2024-02-16T06:45:55;23.70;46.80
84141;DHT22;74257;52.540;13.416;2024-02-16T06:48:22;23.70;46.90
84141;DHT22;74257;52.540;13.416;2024-02-16T06:50:48;23.80;47.00
84141;DHT22;74257;52.540;13.416;2024-02-16T06:53:14;23.80;47.00
84141;DHT22;74257;52.540;13.416;2024-02-16T06:55:40;23.80;47.10
84141;DHT22;74257;52.540;13.416;2024-02-16T06:58:06;23.80;47.10
84141;DHT22;74257;52.540;13.416;2024-02-16T07:00:32;23.80;47.20
84141;DHT22;74257;52.540;13.416;2024-02-16T07:02:57;23.80;47.20
84141;DHT22;74257;52.540;13.416;2024-02-16T07:05:23;23.80;47.30
84141;DHT22;74257;52.540;13.416;2024-02-16T07:07:49;23.90;47.30
84141;DHT22;74257;52.540;13.416;2024-02-16T07:10:15;23.90;47.30
84141;DHT22;74257;52.540;13.416;2024-02-16T07:12:41;23.90;47.40
84141;DHT22;74257;52.540;13.416;2024-02-16T07:15:08;23.90;47.40
84141;DHT22;74257;52.540;13.416;2024-02-16T07:17:34;23.90;47.20
84141;DHT22;74257;52.540;13.416;2024-02-16T07:20:00;23.90;46.90
84141;DHT22;74257;52.540;13.416;2024-02-16T07:22:30;23.90;46.80
84141;DHT22;74257;52.540;13.416;2024-02-16T07:24:56;23.90;46.70
84141;DHT22;74257;52.540;13.416;2024-02-16T07:27:21;23.90;46.60
84141;DHT22;74257;52.540;13.416;2024-02-16T07:29:47;23.90;46.60
84141;DHT22;74257;52.540;13.416;2024-02-16T07:32:13;24.00;46.60
84141;DHT22;74257;52.540;13.416;2024-02-16T07:34:39;24.00;46.70
84141;DHT22;74257;52.540;13.416;2024-02-16T07:37:05;24.00;46.90
84141;DHT22;74257;52.540;13.416;2024-02-16T07:39:30;24.00;46.90
84141;DHT22;74257;52.540;13.416;2024-02-16T07:41:56;24.00;47.00
84141;DHT22;74257;52.540;13.416;2024-02-16T07:44:22;24.00;46.80
84141;DHT22;74257;52.540;13.416;2024-02-16T07:46:47;24.00;46.80
84141;DHT22;74257;52.540;13.416;2024-02-16T07:49:15;24.00;46.70
84141;DHT22;74257;52.540;13.416;2024-02-16T07:51:41;24.00;46.70
84141;DHT22;74257;52.540;13.416;2024-02-16T07:54:07;24.00;46.70
84141;DHT22;74257;52.540;13.416;2024-02-16T07:56:33;24.00;46.80
84141;DHT22;74257;52.540;13.416;2024-02-16T07:59:00;24.00;46.80
84141;DHT22;74257;52.540;13.416;2024-02-16T08:01:25;24.00;46.70
84141;DHT22;74257;52.540;13.416;2024-02-16T08:03:52;24.10;46.80
84141;DHT22;74257;52.540;13.416;2024-02-16T08:06:18;24.10;46.70
84141;DHT22;74257;52.540;13.416;2024-02-16T08:08:47;24.10;46.70
84141;DHT22;74257;52.540;13.416;2024-02-16T08:11:12;24.10;46.80
84141;DHT22;74257;52.540;13.416;2024-02-16T08:13:38;24.20;46.80
84141;DHT22;74257;52.540;13.416;2024-02-16T08:16:04;24.20;46.70
84141;DHT22;74257;52.540;13.416;2024-02-16T08:18:33;24.20;46.70
84141;DHT22;74257;52.540;13.416;2024-02-16T08:20:59;24.20;46.60
84141;DHT22;74257;52.540;13.416;2024-02-16T08:23:25;24.20;46.70
84141;DHT22;74257;52.540;13.416;2024-02-16T08:25:51;24.20;46.70
84141;DHT22;74257;52.540;13.416;2024-02-16T08:28:17;24.20;46.70
84141;DHT22;74257;52.540;13.416;2024-02-16T08:30:43;24.20;46.80
84141;DHT22;74257;52.540;13.416;2024-02-16T08:33:10;24.20;46.80
84141;DHT22;74257;52.540;13.416;2024-02-16T08:35:36;24.20;46.90
84141;DHT22;74257;52.540;13.416;2024-02-16T08:38:03;24.20;46.90
84141;DHT22;74257;52.540;13.416;2024-02-16T08:40:29;24.20;47.00
84141;DHT22;74257;52.540;13.416;2024-02-16T08:42:55;24.20;47.00
84141;DHT22;74257;52.540;13.416;2024-02-16T08:45:21;24.30;47.10
84141;DHT22;74257;52.540;13.416;2024-02-16T08:47:46;24.30;47.10
84141;DHT22;74257;52.540;13.416;2024-02-16T08:50:12;24.30;47.20
84141;DHT22;74257;52.540;13.416;2024-02-16T08:52:39;24.30;47.20
84141;DHT22;74257;52.540;13.416;2024-02-16T08:55:04;24.30;47.20
84141;DHT22;74257;52.540;13.416;2024-02-16T08:57:33;24.30;47.20
84141;DHT22;74257;52.540;13.416;2024-02-16T08:59:59;24.40;47.20
84141;DHT22;74257;52.540;13.416;2024-02-16T09:02:25;24.30;47.30
84141;DHT22;74257;52.540;13.416;2024-02-16T09:04:50;24.40;47.20
84141;DHT22;74257;52.540;13.416;2024-02-16T09:07:16;24.40;47.20
84141;DHT22;74257;52.540;13.416;2024-02-16T09:09:42;24.40;47.30
84141;DHT22;74257;52.540;13.416;2024-02-16T09:12:08;24.40;47.30
84141;DHT22;74257;52.540;13.416;2024-02-16T09:14:33;24.40;47.30
84141;DHT22;74257;52.540;13.416;2024-02-16T09:16:59;24.40;47.20
84141;DHT22;74257;52.540;13.416;2024-02-16T09:19:25;24.40;47.30
84141;DHT22;74257;52.540;13.416;2024-02-16T09:21:51;24.40;47.20
84141;DHT22;74257;52.540;13.416;2024-02-16T09:24:20;24.40;47.20
84141;DHT22;74257;52.540;13.416;2024-02-16T09:26:46;24.40;47.20
84141;DHT22;74257;52.540;13.416;2024-02-16T09:29:13;24.40;47.20
84141;DHT22;74257;52.540;13.416;2024-02-16T09:31:40;24.40;47.20
84141;DHT22;74257;52.540;13.416;2024-02-16T09:34:06;24.40;47.10
84141;DHT22;74257;52.540;13.416;2024-02-16T09:36:32;24.40;47.10
84141;DHT22;74257;52.540;13.416;2024-02-16T09:38:57;24.40;47.20
84141;DHT22;74257;52.540;13.416;2024-02-16T09:41:23;24.40;47.20
84141;DHT22;74257;52.540;13.416;2024-02-16T09:43:49;24.40;47.30
84141;DHT22;74257;52.540;13.416;2024-02-16T09:46:19;24.40;47.40
84141;DHT22;74257;52.540;13.416;2024-02-16T09:48:46;24.40;47.70
84141;DHT22;74257;52.540;13.416;2024-02-16T09:51:14;24.40;47.90
84141;DHT22;74257;52.540;13.416;2024-02-16T09:53:40;24.40;47.70
84141;DHT22;74257;52.540;13.416;2024-02-16T09:56:06;24.40;47.60
84141;DHT22;74257;52.540;13.416;2024-02-16T09:58:35;24.40;47.70
84141;DHT22;74257;52.540;13.416;2024-02-16T10:01:01;24.40;47.70
84141;DHT22;74257;52.540;13.416;2024-02-16T10:03:30;24.50;47.70
84141;DHT22;74257;52.540;13.416;2024-02-16T10:06:12;24.50;47.90
84141;DHT22;74257;52.540;13.416;2024-02-16T10:08:48;24.50;48.00
84141;DHT22;74257;52.540;13.416;2024-02-16T10:11:15;24.50;48.10
84141;DHT22;74257;52.540;13.416;2024-02-16T10:13:41;24.50;48.20
84141;DHT22;74257;52.540;13.416;2024-02-16T10:16:09;24.50;48.20
84141;DHT22;74257;52.540;13.416;2024-02-16T10:18:36;24.50;48.20
84141;DHT22;74257;52.540;13.416;2024-02-16T10:21:02;24.50;48.20
84141;DHT22;74257;52.540;13.416;2024-02-16T10:23:28;24.50;48.20
84141;DHT22;74257;52.540;13.416;2024-02-16T10:25:54;24.50;48.20
84141;DHT22;74257;52.540;13.416;2024-02-16T10:28:20;24.50;48.20
84141;DHT22;74257;52.540;13.416;2024-02-16T10:30:57;24.50;48.20
84141;DHT22;74257;52.540;13.416;2024-02-16T10:33:24;24.50;48.20
84141;DHT22;74257;52.540;13.416;2024-02-16T10:35:50;24.50;48.20
84141;DHT22;74257;52.540;13.416;2024-02-16T10:38:17;24.50;48.20
84141;DHT22;74257;52.540;13.416;2024-02-16T10:40:43;24.50;48.20
84141;DHT22;74257;52.540;13.416;2024-02-16T10:43:13;24.50;48.00
84141;DHT22;74257;52.540;13.416;2024-02-16T10:45:39;24.60;48.00
84141;DHT22;74257;52.540;13.416;2024-02-16T10:48:06;24.60;48.00
84141;DHT22;74257;52.540;13.416;2024-02-16T10:50:34;24.60;48.00
84141;DHT22;74257;52.540;13.416;2024-02-16T10:53:16;24.60;47.90
84141;DHT22;74257;52.540;13.416;2024-02-16T10:55:45;24.60;47.80
84141;DHT22;74257;52.540;13.416;2024-02-16T10:58:12;24.60;47.80
84141;DHT22;74257;52.540;13.416;2024-02-16T11:00:54;24.60;47.80
84141;DHT22;74257;52.540;13.416;2024-02-16T11:03:24;24.50;47.80
84141;DHT22;74257;52.540;13.416;2024-02-16T11:05:51;24.60;47.80
84141;DHT22;74257;52.540;13.416;2024-02-16T11:08:18;24.50;47.80
84141;DHT22;74257;52.540;13.416;2024-02-16T11:10:55;24.50;47.80
84141;DHT22;74257;52.540;13.416;2024-02-16T11:13:25;24.60;47.80
84141;DHT22;74257;52.540;13.416;2024-02-16T11:18:29;24.60;47.80
84141;DHT22;74257;52.540;13.416;2024-02-16T11:20:59;24.50;47.80
84141;DHT22;74257;52.540;13.416;2024-02-16T11:23:27;24.50;47.80
84141;DHT22;74257;52.540;13.416;2024-02-16T11:26:00;24.60;47.70
84141;DHT22;74257;52.540;13.416;2024-02-16T11:28:27;24.60;47.70
84141;DHT22;74257;52.540;13.416;2024-02-16T11:30:53;24.60;47.70
84141;DHT22;74257;52.540;13.416;2024-02-16T11:33:19;24.60;47.70
84141;DHT22;74257;52.540;13.416;2024-02-16T11:35:59;24.60;47.60
84141;DHT22;74257;52.540;13.416;2024-02-16T11:38:26;24.60;47.60
84141;DHT22;74257;52.540;13.416;2024-02-16T11:41:00;24.60;47.60
84141;DHT22;74257;52.540;13.416;2024-02-16T11:43:26;24.60;47.60
84141;DHT22;74257;52.540;13.416;2024-02-16T11:45:52;24.60;47.60
84141;DHT22;74257;52.540;13.416;2024-02-16T11:48:22;24.60;47.60
84141;DHT22;74257;52.540;13.416;2024-02-16T11:50:49;24.60;47.50
84141;DHT22;74257;52.540;13.416;2024-02-16T11:53:18;24.60;47.60
84141;DHT22;74257;52.540;13.416;2024-02-16T11:55:48;24.60;47.50
84141;DHT22;74257;52.540;13.416;2024-02-16T11:58:18;24.60;47.50
84141;DHT22;74257;52.540;13.416;2024-02-16T12:00:48;24.60;47.60
84141;DHT22;74257;52.540;13.416;2024-02-16T12:03:24;24.60;47.50
84141;DHT22;74257;52.540;13.416;2024-02-16T12:05:52;24.60;47.50
84141;DHT22;74257;52.540;13.416;2024-02-16T12:08:19;24.70;47.50
84141;DHT22;74257;52.540;13.416;2024-02-16T12:10:49;24.70;47.50
84141;DHT22;74257;52.540;13.416;2024-02-16T12:13:19;24.70;47.50
84141;DHT22;74257;52.540;13.416;2024-02-16T12:15:50;24.70;47.50
84141;DHT22;74257;52.540;13.416;2024-02-16T12:18:24;24.70;47.50
84141;DHT22;74257;52.540;13.416;2024-02-16T12:21:03;24.70;47.40
84141;DHT22;74257;52.540;13.416;2024-02-16T12:23:31;24.70;47.30
84141;DHT22;74257;52.540;13.416;2024-02-16T12:25:58;24.70;47.40
84141;DHT22;74257;52.540;13.416;2024-02-16T12:28:26;24.70;47.40
84141;DHT22;74257;52.540;13.416;2024-02-16T12:30:53;24.70;47.30
84141;DHT22;74257;52.540;13.416;2024-02-16T12:33:19;24.70;47.30
84141;DHT22;74257;52.540;13.416;2024-02-16T12:35:45;24.70;47.30
84141;DHT22;74257;52.540;13.416;2024-02-16T12:38:11;24.70;47.40
84141;DHT22;74257;52.540;13.416;2024-02-16T12:40:37;24.70;47.30
84141;DHT22;74257;52.540;13.416;2024-02-16T12:43:03;24.70;47.50
84141;DHT22;74257;52.540;13.416;2024-02-16T12:45:29;24.70;47.40
84141;DHT22;74257;52.540;13.416;2024-02-16T12:47:57;24.70;47.40
84141;DHT22;74257;52.540;13.416;2024-02-16T12:50:23;24.70;47.50
84141;DHT22;74257;52.540;13.416;2024-02-16T12:52:48;24.70;47.30
84141;DHT22;74257;52.540;13.416;2024-02-16T12:55:14;24.70;47.50
84141;DHT22;74257;52.540;13.416;2024-02-16T12:57:41;24.70;47.50
84141;DHT22;74257;52.540;13.416;2024-02-16T13:00:07;24.70;47.40
84141;DHT22;74257;52.540;13.416;2024-02-16T13:02:33;24.70;47.30
84141;DHT22;74257;52.540;13.416;2024-02-16T13:04:59;24.70;47.40
84141;DHT22;74257;52.540;13.416;2024-02-16T13:07:25;24.80;47.50
84141;DHT22;74257;52.540;13.416;2024-02-16T13:09:51;24.70;47.40
84141;DHT22;74257;52.540;13.416;2024-02-16T13:12:17;24.80;47.40
84141;DHT22;74257;52.540;13.416;2024-02-16T13:14:43;24.80;47.40
84141;DHT22;74257;52.540;13.416;2024-02-16T13:17:08;24.80;47.40
84141;DHT22;74257;52.540;13.416;2024-02-16T13:19:34;24.80;47.30
84141;DHT22;74257;52.540;13.416;2024-02-16T13:22:00;24.80;47.40
84141;DHT22;74257;52.540;13.416;2024-02-16T13:24:26;24.80;47.30
84141;DHT22;74257;52.540;13.416;2024-02-16T13:26:51;24.80;47.30
84141;DHT22;74257;52.540;13.416;2024-02-16T13:29:17;24.80;47.30
84141;DHT22;74257;52.540;13.416;2024-02-16T13:31:43;24.80;47.30
84141;DHT22;74257;52.540;13.416;2024-02-16T13:34:08;24.80;47.30
84141;DHT22;74257;52.540;13.416;2024-02-16T13:36:34;24.80;47.30
84141;DHT22;74257;52.540;13.416;2024-02-16T13:39:00;24.80;47.30
84141;DHT22;74257;52.540;13.416;2024-02-16T13:41:26;24.80;47.30
84141;DHT22;74257;52.540;13.416;2024-02-16T13:43:52;24.80;47.30
84141;DHT22;74257;52.540;13.416;2024-02-16T13:46:17;24.80;47.30
84141;DHT22;74257;52.540;13.416;2024-02-16T13:48:43;24.80;47.30
84141;DHT22;74257;52.540;13.416;2024-02-16T13:51:09;24.80;47.20
84141;DHT22;74257;52.540;13.416;2024-02-16T13:53:35;24.80;47.20
84141;DHT22;74257;52.540;13.416;2024-02-16T13:56:01;24.80;47.20
84141;DHT22;74257;52.540;13.416;2024-02-16T13:58:30;24.80;47.20
84141;DHT22;74257;52.540;13.416;2024-02-16T14:00:56;24.80;47.20
84141;DHT22;74257;52.540;13.416;2024-02-16T14:03:23;24.80;47.20
84141;DHT22;74257;52.540;13.416;2024-02-16T14:05:49;24.80;47.20
84141;DHT22;74257;52.540;13.416;2024-02-16T14:08:16;24.80;47.30
84141;DHT22;74257;52.540;13.416;2024-02-16T14:10:42;24.80;47.20
84141;DHT22;74257;52.540;13.416;2024-02-16T14:13:07;24.80;47.20
84141;DHT22;74257;52.540;13.416;2024-02-16T14:15:33;24.80;47.20
84141;DHT22;74257;52.540;13.416;2024-02-16T14:17:59;24.80;47.20
84141;DHT22;74257;52.540;13.416;2024-02-16T14:20:25;24.80;47.20
84141;DHT22;74257;52.540;13.416;2024-02-16T14:22:51;24.80;47.20
84141;DHT22;74257;52.540;13.416;2024-02-16T14:25:16;24.90;47.20
84141;DHT22;74257;52.540;13.416;2024-02-16T14:27:44;24.80;47.20
84141;DHT22;74257;52.540;13.416;2024-02-16T14:30:14;24.90;47.10
84141;DHT22;74257;52.540;13.416;2024-02-16T14:32:40;24.80;47.20
84141;DHT22;74257;52.540;13.416;2024-02-16T14:35:07;24.90;47.20
84141;DHT22;74257;52.540;13.416;2024-02-16T14:37:32;24.80;47.10
84141;DHT22;74257;52.540;13.416;2024-02-16T14:39:58;24.90;47.10
84141;DHT22;74257;52.540;13.416;2024-02-16T14:42:26;24.80;47.10
84141;DHT22;74257;52.540;13.416;2024-02-16T14:44:52;24.90;47.20
84141;DHT22;74257;52.540;13.416;2024-02-16T14:47:18;24.90;47.10
84141;DHT22;74257;52.540;13.416;2024-02-16T14:49:44;24.90;47.10
84141;DHT22;74257;52.540;13.416;2024-02-16T14:52:09;24.80;47.10
84141;DHT22;74257;52.540;13.416;2024-02-16T14:54:36;24.90;47.10
84141;DHT22;74257;52.540;13.416;2024-02-16T14:57:01;24.90;47.10
84141;DHT22;74257;52.540;13.416;2024-02-16T14:59:28;24.90;47.10
84141;DHT22;74257;52.540;13.416;2024-02-16T15:01:55;24.80;47.10
84141;DHT22;74257;52.540;13.416;2024-02-16T15:04:22;24.90;47.10
84141;DHT22;74257;52.540;13.416;2024-02-16T15:06:47;24.90;47.10
84141;DHT22;74257;52.540;13.416;2024-02-16T15:09:13;24.90;47.00
84141;DHT22;74257;52.540;13.416;2024-02-16T15:11:39;24.80;47.10
84141;DHT22;74257;52.540;13.416;2024-02-16T15:14:05;24.90;47.10